Terminal Aerodrome Forecast
Issued by NWS

Home | Current Version | Previous Version | Text Only | Print | Product List | Glossary On
Versions: 1 2 3 4 5 6 7 8 9 10 11 12 13 14 15 16 17 18
000
FTUS43 KDLH 030700 AAA
TAFHYR
TAF AMD
KHYR 030748Z 0308/0406 20010KT P6SM BKN120
     FM031500 20010G17KT P6SM BKN100
     FM032000 23013G20KT 4SM -TSRA BR BKN050CB
     FM032300 34012G20KT P6SM VCSH BKN050=

USA.gov is the U.S. government's official web portal to all federal, state and local government web resources and services.